Time;durP1;ratioP1;P1;durP2;ratioP2;P2;SDS_P1;SDS_P2;PMS_P1;PMS_P2;Temp;Humidity;BMP_temperature;BMP_pressure;BME280_temperature;BME280_humidity;BME280_pressure;Samples;Min_cycle;Max_cycle;Signal;HPM_P1;HPM_P2
2023/06/23 00:00:20;;;;;;;12.47;7.77;;;14.40;99.90;13.70;100479;;;;584041;241;24064;-78
2023/06/23 00:02:48;;;;;;;17.53;8.83;;;14.40;99.90;13.70;100481;;;;584263;241;24054;-79
2023/06/23 00:05:13;;;;;;;10.70;6.70;;;14.60;99.90;13.70;100464;;;;584863;241;24019;-80
2023/06/23 00:07:40;;;;;;;17.77;7.20;;;14.60;99.90;13.70;100465;;;;584942;242;24057;-76
2023/06/23 00:10:10;;;;;;;18.73;11.17;;;14.40;99.90;13.70;100468;;;;578954;242;36727;-79
2023/06/23 00:12:41;;;;;;;14.50;7.80;;;14.40;99.90;13.70;100474;;;;584157;242;25082;-79
2023/06/23 00:15:09;;;;;;;15.57;7.27;;;14.40;99.90;13.70;100481;;;;583592;242;24067;-77
2023/06/23 00:17:38;;;;;;;14.77;7.50;;;14.10;99.90;13.70;100476;;;;583674;242;24063;-77
2023/06/23 00:20:03;;;;;;;8.87;6.73;;;14.10;99.90;13.60;100479;;;;584534;242;24059;-78
2023/06/23 00:22:31;;;;;;;19.47;8.33;;;14.60;99.90;13.70;100477;;;;584419;242;24042;-76
2023/06/23 00:24:58;;;;;;;10.60;6.77;;;14.40;99.90;13.70;100491;;;;584006;242;24049;-78
2023/06/23 00:27:27;;;;;;;17.60;8.37;;;14.30;99.90;13.70;100493;;;;584132;242;24023;-75
2023/06/23 00:29:55;;;;;;;13.13;7.70;;;14.30;99.90;13.70;100477;;;;583676;242;25113;-80
2023/06/23 00:32:26;;;;;;;15.67;7.47;;;14.50;99.90;13.70;100484;;;;583702;242;24079;-81
2023/06/23 00:34:55;;;;;;;14.33;7.60;;;14.30;99.90;13.70;100492;;;;583504;242;24112;-81
2023/06/23 00:37:24;;;;;;;14.63;6.57;;;14.30;99.90;13.70;100488;;;;583538;242;24012;-81
2023/06/23 00:39:52;;;;;;;16.03;7.97;;;14.20;99.90;13.70;100484;;;;583253;242;24027;-81
2023/06/23 00:42:21;;;;;;;15.57;8.37;;;14.30;99.90;13.70;100481;;;;583378;242;24050;-83
2023/06/23 00:44:49;;;;;;;20.57;8.57;;;14.40;99.90;13.70;100487;;;;583644;242;24026;-82
2023/06/23 00:47:17;;;;;;;11.57;6.97;;;14.30;99.90;13.70;100492;;;;583389;242;27588;-82
2023/06/23 00:49:47;;;;;;;13.77;6.87;;;14.00;99.90;13.70;100482;;;;584615;242;24068;-77
2023/06/23 00:52:16;;;;;;;13.63;7.00;;;14.50;99.90;13.70;100479;;;;585003;242;24046;-81
2023/06/23 00:54:41;;;;;;;12.37;7.50;;;14.40;99.90;13.70;100476;;;;585074;242;24115;-81
2023/06/23 00:57:12;;;;;;;11.67;7.20;;;14.10;99.90;13.70;100476;;;;584381;237;24028;-81
2023/06/23 00:59:40;;;;;;;15.40;7.20;;;14.40;99.90;13.70;100475;;;;584110;241;24087;-77
2023/06/23 01:02:08;;;;;;;14.80;7.80;;;14.40;99.90;13.70;100474;;;;584626;241;24015;-77
2023/06/23 01:04:36;;;;;;;13.43;6.83;;;14.60;99.90;13.70;100485;;;;584175;241;24003;-75
2023/06/23 01:07:22;;;;;;;12.13;7.30;;;14.50;99.90;13.70;100488;;;;584270;241;24067;-78
2023/06/23 01:09:57;;;;;;;12.73;6.37;;;14.30;99.90;13.70;100476;;;;583452;241;24060;-77
2023/06/23 01:12:27;;;;;;;10.03;7.23;;;14.60;99.90;13.70;100468;;;;583555;241;24061;-76
2023/06/23 01:15:13;;;;;;;8.23;6.27;;;14.60;99.90;13.70;100468;;;;583575;241;24060;-76
2023/06/23 01:17:47;;;;;;;9.20;6.30;;;14.40;99.90;13.70;100456;;;;583622;242;24047;-76
2023/06/23 01:20:24;;;;;;;13.40;7.03;;;14.30;99.90;13.70;100450;;;;583561;242;24099;-76
2023/06/23 01:23:03;;;;;;;13.07;6.67;;;14.50;99.90;13.70;100445;;;;584054;242;24060;-77
2023/06/23 01:25:39;;;;;;;16.77;7.37;;;15.20;99.90;13.70;100431;;;;582682;242;24040;-75
2023/06/23 01:28:19;;;;;;;8.57;6.17;;;13.90;99.90;13.60;100428;;;;583906;242;24013;-76
2023/06/23 01:30:47;;;;;;;16.43;6.90;;;14.30;99.90;13.60;100426;;;;583238;242;24109;-77
2023/06/23 01:33:24;;;;;;;12.30;6.43;;;13.90;99.90;13.60;100434;;;;583340;241;24067;-77
2023/06/23 01:35:58;;;;;;;14.63;8.20;;;14.20;99.90;13.60;100446;;;;567801;246;35124;-81
2023/06/23 01:38:30;;;;;;;18.17;6.87;;;14.10;99.90;13.60;100437;;;;572970;246;24082;-81
2023/06/23 01:40:59;;;;;;;9.73;6.07;;;14.20;99.90;13.60;100433;;;;572647;246;24059;-80
2023/06/23 01:43:29;;;;;;;12.23;6.67;;;14.30;99.90;13.60;100425;;;;573257;246;24103;-78
2023/06/23 01:45:55;;;;;;;11.67;6.37;;;14.30;99.90;13.60;100430;;;;573242;246;24080;-79
2023/06/23 01:48:20;;;;;;;7.63;5.23;;;14.10;99.90;13.60;100424;;;;584303;242;24155;-76
2023/06/23 01:50:51;;;;;;;14.47;7.33;;;14.80;99.90;13.60;100423;;;;585675;241;24061;-79
2023/06/23 01:53:20;;;;;;;12.30;5.93;;;14.20;99.90;13.60;100422;;;;584035;242;24072;-82
2023/06/23 01:55:48;;;;;;;11.97;6.87;;;14.40;99.90;13.60;100426;;;;582100;240;24044;-81
2023/06/23 01:58:12;;;;;;;13.40;6.90;;;14.20;99.90;13.60;100432;;;;572720;246;24113;-80
2023/06/23 02:00:40;;;;;;;17.50;7.27;;;13.90;99.90;13.60;100430;;;;583199;242;24039;-81
2023/06/23 02:03:11;;;;;;;12.23;6.17;;;14.50;99.90;13.60;100424;;;;572896;246;24051;-77
2023/06/23 02:05:39;;;;;;;12.60;6.87;;;14.20;99.90;13.60;100428;;;;583410;242;24080;-82
2023/06/23 02:08:08;;;;;;;9.07;5.97;;;14.00;99.90;13.60;100422;;;;583450;242;24165;-80
2023/06/23 02:10:32;;;;;;;13.50;7.10;;;14.20;99.90;13.60;100427;;;;583555;240;24049;-79
2023/06/23 02:13:03;;;;;;;16.73;6.70;;;14.20;99.90;13.60;100427;;;;585374;241;24056;-82
2023/06/23 02:15:28;;;;;;;9.47;6.07;;;14.30;99.90;13.60;100426;;;;584469;241;24055;-78
2023/06/23 02:17:56;;;;;;;16.87;7.50;;;14.20;99.90;13.60;100418;;;;584217;241;24059;-77
2023/06/23 02:20:24;;;;;;;17.73;7.50;;;14.30;99.90;13.60;100422;;;;584205;241;24023;-82
2023/06/23 02:22:55;;;;;;;12.53;7.00;;;14.40;99.90;13.70;100435;;;;583100;241;24030;-78
2023/06/23 02:25:19;;;;;;;10.60;6.20;;;14.40;99.90;13.70;100441;;;;583947;241;24050;-79
2023/06/23 02:27:50;;;;;;;19.40;7.50;;;14.40;99.90;13.70;100443;;;;590765;241;24057;-83
2023/06/23 02:30:19;;;;;;;16.53;6.60;;;14.20;99.90;13.70;100443;;;;584072;242;24061;-76
2023/06/23 02:32:47;;;;;;;11.93;6.00;;;14.50;99.90;13.80;100440;;;;583542;241;24029;-81
2023/06/23 02:35:14;;;;;;;11.67;6.67;;;13.70;99.90;13.80;100441;;;;583296;242;24032;-82
2023/06/23 02:37:42;;;;;;;17.03;7.27;;;14.50;99.90;13.90;100443;;;;583848;242;24068;-81
2023/06/23 02:40:18;;;;;;;10.20;6.27;;;14.50;99.90;13.90;100447;;;;583376;242;24064;-80
2023/06/23 02:42:42;;;;;;;10.57;5.70;;;14.60;99.90;13.90;100437;;;;583185;242;24058;-80
2023/06/23 02:45:10;;;;;;;9.43;5.77;;;14.60;99.90;14.00;100438;;;;583364;242;24082;-80
2023/06/23 02:47:39;;;;;;;11.90;7.53;;;14.60;99.90;14.00;100430;;;;577963;242;42747;-80
2023/06/23 02:50:07;;;;;;;11.18;7.40;;;14.70;99.90;14.00;100437;;;;578360;242;35025;-79
2023/06/23 02:52:38;;;;;;;8.50;5.97;;;14.70;99.90;14.10;100434;;;;583604;242;24020;-81
2023/06/23 02:55:03;;;;;;;9.63;6.30;;;14.90;99.90;14.10;100434;;;;583530;242;24036;-81
2023/06/23 02:57:31;;;;;;;8.27;5.43;;;14.60;99.90;14.20;100437;;;;583751;237;24032;-76
2023/06/23 03:00:02;;;;;;;10.57;5.43;;;15.10;99.90;14.30;100430;;;;583454;242;24132;-81
2023/06/23 03:02:30;;;;;;;12.07;6.67;;;15.20;99.90;14.40;100433;;;;584549;242;24086;-80
2023/06/23 03:04:58;;;;;;;15.47;6.57;;;15.10;99.90;14.50;100439;;;;583644;242;24034;-80
2023/06/23 03:07:23;;;;;;;25.77;8.87;;;14.80;99.90;14.60;100436;;;;583209;242;24083;-76
2023/06/23 03:10:01;;;;;;;21.23;7.67;;;15.20;99.90;14.70;100433;;;;583573;242;24035;-79
2023/06/23 03:12:19;;;;;;;6.23;4.53;;;15.30;99.90;14.80;100425;;;;583383;242;24047;-80
2023/06/23 03:14:51;;;;;;;10.20;5.40;;;15.30;99.90;14.90;100424;;;;585108;242;24091;-79
2023/06/23 03:17:18;;;;;;;9.77;6.07;;;15.40;99.90;15.00;100426;;;;584460;242;24028;-79
2023/06/23 03:19:54;;;;;;;7.97;4.93;;;15.60;99.90;15.10;100429;;;;585146;239;24108;-79
2023/06/23 03:22:28;;;;;;;12.00;5.73;;;16.00;99.90;15.30;100423;;;;592953;240;24044;-81
2023/06/23 03:24:56;;;;;;;6.40;4.47;;;16.00;99.90;15.50;100413;;;;584586;241;24128;-80
2023/06/23 03:27:24;;;;;;;8.00;4.70;;;16.20;99.90;15.70;100410;;;;584142;241;24043;-81
2023/06/23 03:29:55;;;;;;;6.73;4.73;;;16.20;99.90;15.80;100413;;;;584436;241;24030;-81
2023/06/23 03:32:23;;;;;;;15.77;5.63;;;16.40;99.90;16.00;100397;;;;582659;241;24042;-78
2023/06/23 03:34:53;;;;;;;9.47;5.13;;;16.90;99.90;16.20;100390;;;;583652;241;24080;-77
2023/06/23 03:37:21;;;;;;;8.57;4.87;;;17.10;99.90;16.50;100380;;;;583958;241;24082;-80
2023/06/23 03:39:49;;;;;;;9.60;4.93;;;17.10;99.90;16.80;100381;;;;583979;241;24069;-76
2023/06/23 03:42:19;;;;;;;14.80;5.10;;;17.50;99.90;17.00;100380;;;;583554;242;24017;-76
2023/06/23 03:44:45;;;;;;;7.63;5.10;;;17.60;99.90;17.20;100378;;;;583506;242;24012;-78
2023/06/23 03:47:19;;;;;;;9.00;4.73;;;17.80;99.90;17.50;100378;;;;583763;242;24029;-79
2023/06/23 03:49:49;;;;;;;7.97;4.87;;;18.00;99.90;18.00;100379;;;;583088;242;24091;-81
2023/06/23 03:52:21;;;;;;;7.57;5.17;;;18.50;99.90;19.00;100394;;;;584071;242;24038;-82
2023/06/23 03:54:48;;;;;;;9.40;4.80;;;19.40;99.90;19.70;100397;;;;583647;242;24109;-77
2023/06/23 03:57:13;;;;;;;13.20;5.20;;;21.10;99.90;20.60;100389;;;;583793;238;24070;-77
2023/06/23 03:59:44;;;;;;;6.33;4.33;;;21.00;99.90;21.20;100389;;;;582713;242;23070;-80
2023/06/23 04:02:09;;;;;;;18.13;4.90;;;21.70;99.90;21.40;100390;;;;583244;242;24095;-82
2023/06/23 04:04:37;;;;;;;11.10;4.50;;;22.10;99.90;21.40;100387;;;;583261;242;24045;-79
2023/06/23 04:07:05;;;;;;;9.00;4.17;;;22.10;99.90;21.20;100382;;;;583194;242;24076;-80
2023/06/23 04:09:35;;;;;;;12.33;4.80;;;21.90;99.90;21.10;100382;;;;583544;242;24251;-80
2023/06/23 04:12:00;;;;;;;10.67;5.00;;;21.80;99.90;21.00;100389;;;;583259;242;24076;-80
2023/06/23 04:14:29;;;;;;;9.23;3.97;;;21.70;99.90;21.20;100375;;;;583326;242;24097;-80
2023/06/23 04:16:56;;;;;;;7.40;3.80;;;21.80;99.90;21.60;100377;;;;589723;241;24059;-81
2023/06/23 04:19:24;;;;;;;6.17;3.93;;;22.10;99.90;21.80;100375;;;;583250;242;24082;-82
2023/06/23 04:21:57;;;;;;;8.37;3.90;;;22.50;99.90;21.90;100376;;;;583339;242;24012;-81
2023/06/23 04:24:21;;;;;;;8.30;4.80;;;22.50;99.90;22.10;100369;;;;589668;242;24023;-77
2023/06/23 04:26:49;;;;;;;11.17;4.97;;;22.60;99.90;22.40;100362;;;;583782;242;24013;-82
2023/06/23 04:29:17;;;;;;;11.80;4.33;;;23.40;99.90;22.80;100358;;;;583541;242;24006;-81
2023/06/23 04:31:50;;;;;;;7.07;3.57;;;23.70;99.90;23.20;100363;;;;583719;242;24084;-80
2023/06/23 04:34:17;;;;;;;11.47;4.80;;;23.70;99.90;23.20;100356;;;;584189;241;24140;-83
2023/06/23 04:36:49;;;;;;;4.00;3.17;;;23.80;99.90;23.20;100349;;;;584261;241;24033;-79
2023/06/23 04:39:28;;;;;;;8.83;3.57;;;23.80;99.90;23.20;100358;;;;584230;241;23105;-83
2023/06/23 04:41:54;;;;;;;6.63;3.30;;;23.80;99.90;23.30;100359;;;;583552;241;23088;-81
2023/06/23 04:44:22;;;;;;;8.33;3.73;;;23.90;99.90;23.60;100358;;;;583840;241;23048;-80
2023/06/23 04:46:48;;;;;;;8.47;3.07;;;24.20;99.90;23.60;100356;;;;583921;241;24033;-80
2023/06/23 04:49:16;;;;;;;7.57;3.50;;;24.20;99.90;23.50;100348;;;;584160;241;23067;-80
2023/06/23 04:51:47;;;;;;;4.77;3.40;;;24.10;99.90;23.30;100346;;;;584474;242;23073;-79
2023/06/23 04:54:27;;;;;;;7.40;3.20;;;23.90;99.90;22.90;100349;;;;584578;242;24024;-77
2023/06/23 04:57:01;;;;;;;5.40;3.40;;;23.20;99.90;22.50;100351;;;;584413;242;23107;-79
2023/06/23 04:59:22;;;;;;;6.17;3.87;;;23.10;99.90;22.10;100356;;;;584019;242;24083;-79
2023/06/23 05:01:50;;;;;;;3.83;3.43;;;22.80;99.90;21.90;100355;;;;584954;242;24050;-81
2023/06/23 05:04:18;;;;;;;7.17;3.80;;;22.50;99.90;21.60;100355;;;;585114;242;24138;-80
2023/06/23 05:06:50;;;;;;;7.17;3.90;;;22.20;99.90;21.40;100359;;;;584836;242;24087;-79
2023/06/23 05:09:14;;;;;;;8.97;3.57;;;21.80;99.90;21.30;100359;;;;582985;242;24043;-81
2023/06/23 05:11:45;;;;;;;15.13;3.43;;;21.80;99.90;21.20;100355;;;;584098;242;24124;-78
2023/06/23 05:14:13;;;;;;;5.53;3.50;;;21.70;99.90;21.10;100360;;;;583959;242;24086;-79
2023/06/23 05:16:38;;;;;;;4.50;3.67;;;21.60;99.90;21.00;100368;;;;583995;242;24027;-80
2023/06/23 05:19:06;;;;;;;4.32;3.70;;;21.30;99.90;20.90;100362;;;;585381;238;35092;-81
2023/06/23 05:21:36;;;;;;;6.90;4.13;;;21.40;99.90;20.90;100373;;;;583850;242;24039;-81
2023/06/23 05:24:04;;;;;;;15.88;5.80;;;21.30;99.90;20.70;100369;;;;578582;238;35011;-83
2023/06/23 05:26:33;;;;;;;12.23;4.77;;;21.20;99.90;20.70;100375;;;;584032;242;24028;-81
2023/06/23 05:28:59;;;;;;;7.27;3.33;;;21.20;99.90;20.70;100377;;;;583792;242;24042;-80
2023/06/23 05:31:27;;;;;;;16.37;4.70;;;21.20;99.90;20.70;100373;;;;583749;242;24056;-78
2023/06/23 05:33:55;;;;;;;15.63;4.33;;;21.20;99.90;20.70;100375;;;;583845;242;24077;-83
2023/06/23 05:36:23;;;;;;;7.30;4.17;;;21.20;99.90;20.80;100369;;;;583833;242;24099;-79
2023/06/23 05:38:51;;;;;;;12.23;4.30;;;21.40;99.90;20.90;100369;;;;583443;242;24106;-80
2023/06/23 05:41:21;;;;;;;11.10;4.97;;;21.40;99.90;20.90;100371;;;;578130;242;47880;-82
2023/06/23 05:43:47;;;;;;;3.90;3.30;;;21.40;99.90;20.80;100369;;;;583325;242;24042;-81
2023/06/23 05:46:14;;;;;;;7.33;3.77;;;21.30;99.90;20.80;100373;;;;584267;241;24017;-80
2023/06/23 05:48:51;;;;;;;6.57;3.67;;;21.30;99.90;20.80;100369;;;;584842;241;24068;-80
2023/06/23 05:51:21;;;;;;;14.03;4.17;;;20.90;99.90;20.80;100369;;;;584896;241;24000;-81
2023/06/23 05:53:49;;;;;;;14.73;4.40;;;21.10;99.90;20.80;100376;;;;585106;241;24038;-81
2023/06/23 05:56:41;;;;;;;18.80;4.03;;;21.50;99.90;20.80;100368;;;;584439;241;24085;-81
2023/06/23 05:59:10;;;;;;;3.50;2.57;;;21.30;99.90;20.80;100364;;;;584996;241;23048;-82
2023/06/23 06:01:37;;;;;;;7.40;3.70;;;21.40;99.90;20.80;100355;;;;583827;241;23045;-77
2023/06/23 06:04:11;;;;;;;12.53;4.53;;;21.30;99.90;20.90;100351;;;;583894;242;24067;-78
2023/06/23 06:06:42;;;;;;;5.83;3.40;;;21.30;99.90;20.90;100344;;;;583410;242;24016;-80
2023/06/23 06:09:07;;;;;;;4.50;3.23;;;21.40;99.90;20.90;100347;;;;583492;242;24042;-81
2023/06/23 06:11:35;;;;;;;9.17;4.00;;;21.50;99.90;21.00;100335;;;;584545;242;24066;-79
2023/06/23 06:14:07;;;;;;;10.50;4.57;;;21.50;99.90;21.00;100331;;;;591774;242;24058;-83
2023/06/23 06:16:31;;;;;;;10.33;3.77;;;21.50;99.90;21.10;100336;;;;584045;242;24067;-78
2023/06/23 06:18:59;;;;;;;8.50;3.70;;;21.60;99.90;21.10;100331;;;;583810;242;23043;-78
2023/06/23 06:21:27;;;;;;;14.13;4.67;;;21.70;99.90;21.20;100334;;;;583762;242;24038;-82
2023/06/23 06:23:55;;;;;;;12.27;4.17;;;21.70;99.90;21.20;100338;;;;584032;242;24033;-81
2023/06/23 06:26:24;;;;;;;10.70;4.00;;;21.70;99.90;21.30;100334;;;;583926;242;23099;-83
2023/06/23 06:28:55;;;;;;;12.80;3.87;;;21.80;99.90;21.30;100332;;;;583732;242;24033;-82
2023/06/23 06:31:19;;;;;;;12.37;4.63;;;22.10;99.90;21.40;100326;;;;584012;242;24085;-81
2023/06/23 06:33:47;;;;;;;12.43;4.63;;;22.00;99.90;21.70;100315;;;;584119;242;24042;-80
2023/06/23 06:36:15;;;;;;;8.33;4.53;;;22.40;99.90;21.90;100315;;;;584362;242;24027;-78
2023/06/23 06:38:47;;;;;;;5.80;3.73;;;22.40;99.90;22.20;100312;;;;584721;242;24069;-82
2023/06/23 06:41:14;;;;;;;9.40;3.03;;;22.90;99.90;22.50;100309;;;;583159;242;24047;-82
2023/06/23 06:43:44;;;;;;;10.73;3.77;;;23.30;99.90;22.90;100307;;;;589926;242;24020;-78
2023/06/23 06:46:07;;;;;;;4.07;3.17;;;23.30;99.90;23.20;100315;;;;583256;242;24084;-78
2023/06/23 06:48:35;;;;;;;5.83;3.60;;;23.60;99.90;23.30;100306;;;;583473;242;24019;-77
2023/06/23 06:51:07;;;;;;;8.30;4.07;;;24.00;99.90;23.50;100313;;;;584083;242;23087;-81
2023/06/23 06:53:35;;;;;;;7.03;3.33;;;24.00;99.90;23.60;100315;;;;583898;242;24070;-82
2023/06/23 06:56:03;;;;;;;7.50;3.60;;;24.10;97.50;23.60;100317;;;;583516;242;24035;-81
2023/06/23 06:58:31;;;;;;;6.17;3.00;;;24.10;97.50;23.70;100312;;;;584808;241;24035;-81
2023/06/23 07:00:57;;;;;;;6.53;3.77;;;24.30;96.40;23.70;100312;;;;584257;241;24054;-81
2023/06/23 07:03:24;;;;;;;11.27;3.10;;;24.20;96.50;23.70;100313;;;;584166;241;24070;-77
2023/06/23 07:05:52;;;;;;;5.80;3.63;;;24.30;96.20;23.80;100315;;;;584227;241;24093;-79
2023/06/23 07:08:20;;;;;;;2.83;2.47;;;24.30;95.80;23.90;100318;;;;584015;241;24131;-78
2023/06/23 07:10:48;;;;;;;10.40;3.70;;;24.50;95.50;24.00;100317;;;;583767;241;24019;-78
2023/06/23 07:13:16;;;;;;;6.40;3.40;;;24.50;94.40;24.10;100315;;;;584080;241;24045;-76
2023/06/23 07:15:44;;;;;;;8.77;3.87;;;24.70;93.50;24.20;100331;;;;583821;242;23077;-78
2023/06/23 07:18:13;;;;;;;11.60;4.10;;;24.70;95.60;24.20;100322;;;;583549;242;24086;-79
2023/06/23 07:20:41;;;;;;;7.73;2.70;;;24.70;96.50;24.20;100320;;;;583711;242;23039;-79
2023/06/23 07:23:10;;;;;;;8.83;3.87;;;24.70;96.20;24.20;100333;;;;583608;242;23036;-77
2023/06/23 07:25:40;;;;;;;7.00;3.67;;;24.70;96.50;24.30;100335;;;;583913;242;24109;-79
2023/06/23 07:28:09;;;;;;;7.93;3.13;;;24.80;97.30;24.30;100338;;;;583929;242;23081;-79
2023/06/23 07:30:33;;;;;;;7.63;3.43;;;24.80;98.20;24.40;100338;;;;583941;242;23046;-77
2023/06/23 07:33:02;;;;;;;5.40;2.67;;;24.80;98.90;24.40;100338;;;;583936;242;23073;-79
2023/06/23 07:35:30;;;;;;;10.03;3.33;;;25.00;99.50;24.60;100342;;;;583731;242;23030;-78
2023/06/23 07:38:02;;;;;;;8.20;3.20;;;25.00;99.50;24.70;100347;;;;584089;242;23033;-78
2023/06/23 07:40:29;;;;;;;4.27;2.97;;;25.20;99.70;25.00;100345;;;;584281;238;24054;-78
2023/06/23 07:42:54;;;;;;;5.45;3.53;;;25.50;99.20;25.30;100358;;;;585782;242;34984;-77
2023/06/23 07:45:25;;;;;;;5.80;3.23;;;25.80;98.90;25.50;100362;;;;583566;242;23041;-77
2023/06/23 07:47:50;;;;;;;6.17;3.53;;;26.00;96.50;25.60;100372;;;;583271;242;25073;-76
2023/06/23 07:50:26;;;;;;;5.60;3.23;;;26.10;96.50;25.50;100378;;;;583392;242;23210;-77
2023/06/23 07:52:55;;;;;;;7.30;3.47;;;26.20;95.60;25.40;100384;;;;583042;242;23089;-78
2023/06/23 07:55:20;;;;;;;7.25;3.22;;;26.10;94.60;25.30;100379;;;;578851;242;34934;-81
2023/06/23 07:57:52;;;;;;;5.43;2.70;;;25.90;94.60;25.10;100392;;;;583918;242;23143;-77
2023/06/23 08:00:18;;;;;;;3.03;2.70;;;25.80;92.80;24.80;100392;;;;583545;242;24098;-78
2023/06/23 08:02:46;;;;;;;6.80;2.43;;;25.60;91.60;24.60;100399;;;;583621;242;23087;-77
2023/06/23 08:05:17;;;;;;;2.67;2.40;;;25.10;92.00;24.40;100407;;;;583547;242;23084;-78
2023/06/23 08:07:46;;;;;;;5.30;3.03;;;25.10;92.20;24.20;100406;;;;583337;242;23051;-76
2023/06/23 08:10:10;;;;;;;8.40;3.10;;;24.50;92.00;23.80;100411;;;;584398;241;23036;-77
2023/06/23 08:12:38;;;;;;;7.63;3.33;;;24.20;92.60;23.60;100407;;;;584696;241;24033;-79
2023/06/23 08:15:08;;;;;;;7.03;3.13;;;24.10;93.20;23.50;100407;;;;584429;241;24039;-78
2023/06/23 08:17:37;;;;;;;5.80;2.73;;;24.00;93.60;23.40;100423;;;;584847;241;24078;-80
2023/06/23 08:20:07;;;;;;;10.47;3.40;;;23.90;94.10;23.30;100427;;;;584066;241;24027;-80
2023/06/23 08:22:35;;;;;;;3.57;2.73;;;23.80;95.20;23.30;100432;;;;584136;241;24017;-77
2023/06/23 08:25:04;;;;;;;10.27;3.13;;;23.80;96.10;23.30;100446;;;;584268;241;23044;-77
2023/06/23 08:27:36;;;;;;;6.10;3.33;;;23.70;97.30;23.20;100446;;;;583969;242;24041;-78
2023/06/23 08:30:04;;;;;;;3.27;2.67;;;23.70;97.20;23.20;100453;;;;583859;242;24004;-76
2023/06/23 08:32:28;;;;;;;5.37;2.83;;;23.60;97.80;23.20;100464;;;;584181;242;23033;-78
2023/06/23 08:34:59;;;;;;;3.13;2.80;;;23.60;98.20;23.20;100462;;;;584164;242;24086;-77
2023/06/23 08:37:25;;;;;;;5.40;3.50;;;23.50;99.90;23.10;100472;;;;584037;242;24013;-79
2023/06/23 08:39:53;;;;;;;7.27;3.53;;;23.40;99.90;23.00;100473;;;;584170;242;24040;-78
2023/06/23 08:42:23;;;;;;;4.13;3.03;;;23.40;99.90;23.00;100479;;;;584177;242;24017;-79
2023/06/23 08:44:50;;;;;;;8.37;4.77;;;23.30;99.90;23.00;100484;;;;583429;242;24086;-77
2023/06/23 08:47:18;;;;;;;10.40;3.17;;;23.20;99.90;22.90;100490;;;;583694;242;24079;-82
2023/06/23 08:49:46;;;;;;;5.67;3.20;;;23.10;99.90;22.80;100499;;;;583561;242;24166;-80
2023/06/23 08:52:17;;;;;;;3.27;2.70;;;23.10;99.90;22.70;100490;;;;583562;242;24029;-80
2023/06/23 08:54:48;;;;;;;7.13;3.77;;;23.10;99.90;22.70;100506;;;;583877;242;24127;-80
2023/06/23 08:57:16;;;;;;;3.03;2.60;;;23.20;99.90;22.60;100508;;;;583942;237;24036;-82
2023/06/23 08:59:46;;;;;;;7.23;3.03;;;23.00;99.90;22.60;100509;;;;583893;242;24128;-82
2023/06/23 09:02:12;;;;;;;11.77;3.53;;;23.00;99.90;22.60;100515;;;;583709;242;24029;-82
2023/06/23 09:04:40;;;;;;;7.53;3.77;;;23.00;99.90;22.50;100520;;;;584229;242;23035;-78
2023/06/23 09:07:08;;;;;;;5.67;3.60;;;23.00;99.90;22.50;100520;;;;584559;242;23114;-80
2023/06/23 09:09:42;;;;;;;7.17;3.70;;;23.10;99.90;22.60;100518;;;;584540;242;24063;-82
2023/06/23 09:12:10;;;;;;;6.40;3.83;;;23.20;99.90;22.60;100523;;;;590681;242;24142;-81
2023/06/23 09:14:38;;;;;;;7.03;4.30;;;23.20;99.90;22.70;100529;;;;583934;238;24060;-80
2023/06/23 09:17:07;;;;;;;7.23;3.83;;;23.20;99.90;22.80;100526;;;;584162;242;24061;-83
2023/06/23 09:19:39;;;;;;;10.13;4.37;;;23.40;99.90;22.90;100521;;;;583290;242;24095;-81
2023/06/23 09:22:04;;;;;;;7.03;4.00;;;23.50;99.90;23.10;100529;;;;584585;241;24070;-78
2023/06/23 09:24:44;;;;;;;9.27;4.70;;;23.80;99.90;23.30;100530;;;;584457;241;24050;-77
2023/06/23 09:27:09;;;;;;;4.83;3.13;;;23.90;99.90;23.50;100520;;;;584567;240;24047;-78
2023/06/23 09:29:40;;;;;;;9.37;4.23;;;24.00;99.90;23.50;100520;;;;584219;241;23087;-78
2023/06/23 09:32:07;;;;;;;6.93;3.23;;;24.20;99.90;23.60;100519;;;;584187;241;23150;-78
2023/06/23 09:34:42;;;;;;;4.77;3.17;;;24.10;99.90;23.60;100518;;;;584050;241;24076;-78
2023/06/23 09:37:12;;;;;;;6.27;3.67;;;24.10;99.90;23.50;100521;;;;583620;241;23047;-78
2023/06/23 09:39:41;;;;;;;6.40;3.47;;;24.00;99.90;23.40;100521;;;;584173;242;24051;-79
2023/06/23 09:42:13;;;;;;;5.60;3.87;;;23.80;99.90;23.30;100524;;;;590237;241;23041;-81
2023/06/23 09:44:38;;;;;;;12.77;7.97;;;23.60;99.90;23.10;100521;;;;583725;242;23076;-76
2023/06/23 09:47:09;;;;;;;4.73;3.37;;;23.40;99.90;22.90;100529;;;;583423;242;23045;-78
2023/06/23 09:49:40;;;;;;;9.27;4.60;;;23.20;99.90;22.70;100530;;;;583492;242;24039;-77
2023/06/23 09:52:11;;;;;;;8.07;3.37;;;23.00;99.90;22.60;100532;;;;583446;242;24020;-79
2023/06/23 09:54:42;;;;;;;6.77;3.90;;;22.90;99.90;22.40;100522;;;;583748;242;24032;-82
2023/06/23 09:57:10;;;;;;;9.90;4.77;;;22.80;99.90;22.30;100527;;;;583786;237;24024;-82
2023/06/23 09:59:41;;;;;;;10.60;3.77;;;22.60;99.90;22.20;100526;;;;583437;242;24142;-82
2023/06/23 10:02:06;;;;;;;5.03;3.70;;;22.50;99.90;22.10;100519;;;;583758;242;24088;-81
2023/06/23 10:04:35;;;;;;;13.70;5.17;;;22.40;99.90;22.00;100527;;;;583720;242;24006;-78
2023/06/23 10:07:22;;;;;;;7.00;3.77;;;22.30;99.90;21.90;100523;;;;583670;238;24036;-79
2023/06/23 10:09:55;;;;;;;8.20;4.10;;;22.40;99.90;21.80;100516;;;;581654;246;23135;-79
2023/06/23 10:12:26;;;;;;;5.00;3.57;;;22.10;99.90;21.70;100512;;;;583507;242;24047;-79
2023/06/23 10:14:51;;;;;;;6.47;4.22;;;22.30;99.90;21.60;100506;;;;577791;242;35099;-79
2023/06/23 10:17:19;;;;;;;12.97;4.80;;;21.90;99.90;21.50;100509;;;;583723;237;24031;-77
2023/06/23 10:19:48;;;;;;;10.00;3.93;;;21.90;99.90;21.50;100506;;;;583665;242;24047;-79
2023/06/23 10:22:18;;;;;;;4.80;3.50;;;22.00;99.90;21.40;100506;;;;583819;242;24058;-78
2023/06/23 10:24:49;;;;;;;9.20;4.13;;;21.80;99.90;21.40;100511;;;;583848;242;24031;-77
2023/06/23 10:27:16;;;;;;;8.15;3.72;;;21.90;99.90;21.40;100507;;;;579015;242;34944;-79
2023/06/23 10:29:45;;;;;;;9.37;3.93;;;21.80;99.90;21.40;100510;;;;583671;242;23071;-79
2023/06/23 10:32:12;;;;;;;7.13;3.87;;;22.00;99.90;21.40;100505;;;;584493;241;24015;-76
2023/06/23 10:34:43;;;;;;;4.23;3.57;;;22.10;99.90;21.50;100503;;;;585344;241;24039;-77
2023/06/23 10:37:09;;;;;;;6.83;4.17;;;21.90;99.90;21.50;100513;;;;584646;241;24073;-78
2023/06/23 10:39:37;;;;;;;6.50;3.60;;;21.40;99.90;21.60;100518;;;;584758;241;25105;-78
2023/06/23 10:42:12;;;;;;;12.50;4.20;;;22.00;99.90;21.60;100515;;;;584637;241;24125;-80
2023/06/23 10:44:37;;;;;;;10.97;3.67;;;22.10;99.90;21.60;100515;;;;584166;241;24035;-77
2023/06/23 10:47:08;;;;;;;8.00;4.30;;;22.40;99.90;21.70;100520;;;;584577;241;24057;-81
2023/06/23 10:49:36;;;;;;;6.87;4.17;;;22.10;99.90;21.70;100514;;;;583481;245;24065;-82
2023/06/23 10:52:01;;;;;;;12.60;3.87;;;22.40;99.90;21.80;100511;;;;583946;242;24020;-82
2023/06/23 10:54:32;;;;;;;6.97;3.97;;;22.50;99.90;21.80;100509;;;;578626;246;24036;-79
2023/06/23 10:56:58;;;;;;;3.50;3.17;;;22.40;99.90;21.90;100505;;;;582349;242;24094;-77
2023/06/23 10:59:33;;;;;;;9.77;3.80;;;22.50;99.90;22.00;100501;;;;583757;242;24089;-79
2023/06/23 11:02:00;;;;;;;5.53;3.40;;;22.80;99.90;22.20;100502;;;;584098;242;24021;-76
2023/06/23 11:04:28;;;;;;;12.03;5.03;;;23.00;99.90;22.50;100509;;;;583885;242;24058;-82
2023/06/23 11:07:18;;;;;;;24.53;6.63;;;23.10;99.90;22.70;100504;;;;583853;242;24023;-83
2023/06/23 11:09:57;;;;;;;6.43;3.20;;;23.30;99.90;22.90;100505;;;;583512;242;24102;-82
2023/06/23 11:12:31;;;;;;;9.33;3.80;;;23.60;99.90;23.10;100505;;;;578740;242;34980;-81
2023/06/23 11:15:23;;;;;;;7.60;3.63;;;23.70;99.90;23.30;100510;;;;582890;242;24024;-83